createdAt,value
2018-05-21T00:02:11.724Z,51.93
2018-05-21T00:04:37.669Z,52.34
2018-05-21T00:07:03.617Z,52.67
2018-05-21T00:12:22.439Z,52.36
2018-05-21T00:14:48.347Z,52.05
2018-05-21T00:17:14.286Z,52.71
2018-05-21T00:19:40.212Z,52.94
2018-05-21T00:22:06.144Z,53.19
2018-05-21T00:24:32.090Z,53.56
2018-05-21T00:26:58.050Z,53.47
2018-05-21T00:29:24.006Z,54.72
2018-05-21T00:31:49.949Z,54.39
2018-05-21T00:34:15.896Z,53.90
2018-05-21T00:36:41.860Z,53.71
2018-05-21T00:39:07.781Z,54.73
2018-05-21T00:41:33.716Z,56.24
2018-05-21T00:43:59.698Z,53.89
2018-05-21T00:46:25.618Z,54.27
2018-05-21T00:48:51.550Z,54.00
2018-05-21T00:51:17.458Z,54.64
2018-05-21T00:53:43.400Z,55.12
2018-05-21T00:56:09.328Z,54.74
2018-05-21T00:58:35.240Z,55.37
2018-05-21T01:01:01.189Z,54.99
2018-05-21T01:03:27.105Z,56.40
2018-05-21T01:05:53.015Z,56.90
2018-05-21T01:08:18.914Z,55.67
2018-05-21T01:10:44.846Z,56.16
2018-05-21T01:13:10.774Z,57.04
2018-05-21T01:15:36.797Z,56.39
2018-05-21T01:18:02.649Z,57.36
2018-05-21T01:20:28.559Z,57.23
2018-05-21T01:22:54.483Z,58.37
2018-05-21T01:25:20.410Z,59.10
2018-05-21T01:27:46.346Z,59.17
2018-05-21T01:30:12.264Z,59.17
2018-05-21T01:32:38.194Z,59.20
2018-05-21T01:35:04.115Z,58.80
2018-05-21T01:37:30.046Z,59.23
2018-05-21T01:39:55.976Z,59.36
2018-05-21T01:42:21.899Z,59.53
2018-05-21T01:44:47.833Z,59.70
2018-05-21T01:47:13.729Z,59.92
2018-05-21T01:49:39.669Z,59.54
2018-05-21T01:52:05.583Z,59.53
2018-05-21T01:54:31.536Z,60.29
2018-05-21T01:56:57.455Z,61.03
2018-05-21T01:59:23.379Z,60.06
2018-05-21T02:01:49.296Z,60.43
2018-05-21T02:04:15.211Z,60.97
2018-05-21T02:06:41.158Z,61.25
2018-05-21T02:09:07.060Z,61.62
2018-05-21T02:11:33.029Z,61.56
2018-05-21T02:13:58.942Z,61.60
2018-05-21T02:16:24.869Z,61.81
2018-05-21T02:18:50.788Z,61.91
2018-05-21T02:21:16.740Z,62.02
2018-05-21T02:23:42.660Z,62.61
2018-05-21T02:26:08.573Z,62.64
2018-05-21T02:28:34.500Z,62.45
2018-05-21T02:31:00.422Z,62.45
2018-05-21T02:33:26.353Z,62.22
2018-05-21T02:35:52.255Z,62.66
2018-05-21T02:38:18.183Z,62.40
2018-05-21T02:40:44.105Z,62.83
2018-05-21T02:43:10.050Z,62.63
2018-05-21T02:45:36.002Z,62.94
2018-05-21T02:48:01.940Z,62.76
2018-05-21T02:50:27.855Z,62.89
2018-05-21T02:52:53.799Z,63.34
2018-05-21T02:55:19.745Z,63.45
2018-05-21T02:57:45.664Z,63.61
2018-05-21T03:00:11.621Z,63.96
2018-05-21T03:02:37.548Z,63.91
2018-05-21T03:05:03.521Z,64.11
2018-05-21T03:07:29.420Z,64.04
2018-05-21T03:09:55.353Z,64.45
2018-05-21T03:12:21.271Z,64.36
2018-05-21T03:14:47.200Z,64.84
2018-05-21T03:17:13.143Z,64.61
2018-05-21T03:19:39.047Z,64.87
2018-05-21T03:22:04.972Z,65.30
2018-05-21T03:24:30.880Z,65.45
2018-05-21T03:26:56.795Z,65.63
2018-05-21T03:29:22.727Z,65.91
2018-05-21T03:31:48.676Z,65.86
2018-05-21T03:34:14.593Z,65.69
2018-05-21T03:36:40.524Z,65.34
2018-05-21T03:39:06.447Z,65.55
2018-05-21T03:41:32.401Z,65.75
2018-05-21T03:43:58.325Z,65.43
2018-05-21T03:46:24.230Z,65.72
2018-05-21T03:48:50.141Z,65.58
2018-05-21T03:51:16.053Z,65.46
2018-05-21T03:53:42.000Z,66.17
2018-05-21T03:56:07.918Z,66.58
2018-05-21T03:58:46.409Z,66.77
2018-05-21T04:01:24.486Z,67.88
2018-05-21T04:03:54.336Z,66.78
2018-05-21T04:06:20.256Z,67.34
2018-05-21T04:08:46.192Z,68.16
2018-05-21T04:11:12.118Z,68.08
2018-05-21T04:13:38.037Z,67.59
2018-05-21T04:16:03.960Z,68.76
2018-05-21T04:18:29.880Z,68.18
2018-05-21T04:20:55.815Z,69.44
2018-05-21T04:23:21.726Z,68.77
2018-05-21T04:25:47.651Z,69.99
2018-05-21T04:28:13.578Z,69.70
2018-05-21T04:30:39.531Z,68.12
2018-05-21T04:33:05.462Z,67.91
2018-05-21T04:35:31.371Z,67.64
2018-05-21T04:37:57.283Z,67.99
2018-05-21T04:40:23.205Z,67.64
2018-05-21T04:42:49.149Z,66.87
2018-05-21T04:45:15.083Z,67.13
2018-05-21T04:47:41.025Z,67.32
2018-05-21T04:50:06.937Z,67.87
2018-05-21T04:52:32.852Z,66.22
2018-05-21T04:54:58.768Z,66.20
2018-05-21T04:57:24.685Z,66.33
2018-05-21T04:59:50.602Z,67.12
2018-05-21T05:02:16.526Z,66.56
2018-05-21T05:04:42.488Z,66.46
2018-05-21T05:07:08.397Z,66.07
2018-05-21T05:09:34.348Z,66.95
2018-05-21T05:12:00.263Z,66.80
2018-05-21T05:14:26.200Z,66.55
2018-05-21T05:16:52.108Z,68.51
2018-05-21T05:19:18.022Z,69.67
2018-05-21T05:21:43.982Z,69.12
2018-05-21T05:24:09.896Z,67.96
2018-05-21T05:26:35.924Z,66.76
2018-05-21T05:29:01.786Z,66.65
2018-05-21T05:31:27.726Z,66.87
2018-05-21T05:33:53.740Z,66.47
2018-05-21T05:36:19.673Z,66.18
2018-05-21T05:38:45.610Z,66.27
2018-05-21T05:41:11.539Z,65.69
2018-05-21T05:43:37.474Z,65.86
2018-05-21T05:46:03.388Z,65.91
2018-05-21T05:48:29.319Z,66.56
2018-05-21T05:50:55.256Z,66.60
2018-05-21T05:53:21.196Z,66.53
2018-05-21T05:55:47.101Z,66.63
2018-05-21T05:58:13.047Z,66.25
2018-05-21T06:00:38.966Z,65.65
2018-05-21T06:03:04.891Z,66.11
2018-05-21T06:05:30.828Z,66.91
2018-05-21T06:07:56.739Z,66.11
2018-05-21T06:10:22.673Z,65.53
2018-05-21T06:12:48.599Z,65.40
2018-05-21T06:15:14.523Z,65.08
2018-05-21T06:17:40.399Z,64.97
2018-05-21T06:20:06.351Z,64.89
2018-05-21T06:22:32.269Z,65.02
2018-05-21T06:24:58.209Z,65.03
2018-05-21T06:27:24.131Z,64.10
2018-05-21T06:29:50.070Z,64.25
2018-05-21T06:32:16.018Z,64.11
2018-05-21T06:34:41.949Z,64.21
2018-05-21T06:37:07.888Z,64.07
2018-05-21T06:39:33.795Z,63.34
2018-05-21T06:41:59.736Z,63.29
2018-05-21T06:44:25.663Z,63.23
2018-05-21T06:46:51.598Z,63.56
2018-05-21T06:49:17.518Z,62.43
2018-05-21T06:51:43.446Z,62.65
2018-05-21T06:54:09.417Z,63.08
2018-05-21T06:56:35.380Z,61.91
2018-05-21T06:59:01.312Z,62.74
2018-05-21T07:01:27.248Z,61.66
2018-05-21T07:03:53.180Z,62.81
2018-05-21T07:06:19.123Z,63.00
2018-05-21T07:08:45.048Z,62.21
2018-05-21T07:11:10.963Z,61.17
2018-05-21T07:13:36.914Z,62.44
2018-05-21T07:16:02.820Z,61.86
2018-05-21T07:18:28.754Z,61.60
2018-05-21T07:20:54.693Z,62.39
2018-05-21T07:23:20.622Z,60.87
2018-05-21T07:25:46.538Z,60.01
2018-05-21T07:28:12.453Z,60.88
2018-05-21T07:30:38.389Z,60.80
2018-05-21T07:33:04.347Z,60.01
2018-05-21T07:35:30.281Z,59.23
2018-05-21T07:37:56.227Z,58.83
2018-05-21T07:40:22.182Z,58.87
2018-05-21T07:42:48.117Z,59.38
2018-05-21T07:45:14.047Z,59.70
2018-05-21T07:47:39.981Z,58.85
2018-05-21T07:50:05.915Z,58.76
2018-05-21T07:52:31.863Z,58.89
2018-05-21T07:54:57.788Z,59.32
2018-05-21T07:57:23.732Z,57.84
2018-05-21T07:59:49.699Z,57.86
2018-05-21T08:02:15.637Z,56.74
2018-05-21T08:04:41.591Z,57.13
2018-05-21T08:07:07.504Z,57.83
2018-05-21T08:09:33.454Z,57.51
2018-05-21T08:11:59.380Z,56.33
2018-05-21T08:14:25.386Z,56.03
2018-05-21T08:16:51.314Z,55.18
2018-05-21T08:19:17.258Z,55.50
2018-05-21T08:21:43.203Z,54.65
2018-05-21T08:24:09.134Z,54.31
2018-05-21T08:26:35.135Z,53.33
2018-05-21T08:29:00.999Z,53.52
2018-05-21T08:31:26.951Z,53.38
2018-05-21T08:33:52.875Z,53.19
2018-05-21T08:36:18.805Z,52.67
2018-05-21T08:38:44.732Z,52.19
2018-05-21T08:41:10.675Z,51.87
2018-05-21T08:43:36.609Z,52.98
2018-05-21T08:46:02.551Z,51.66
2018-05-21T08:48:28.490Z,51.25
2018-05-21T08:50:54.462Z,50.04
2018-05-21T08:53:20.403Z,50.40
2018-05-21T08:55:46.357Z,50.56
2018-05-21T08:58:14.634Z,49.59
2018-05-21T09:00:40.539Z,50.26
2018-05-21T09:03:06.449Z,49.45
2018-05-21T09:05:32.369Z,49.40
2018-05-21T09:07:58.309Z,49.78
2018-05-21T09:10:24.225Z,49.43
2018-05-21T09:12:50.179Z,49.13
2018-05-21T09:15:16.130Z,50.24
2018-05-21T09:17:42.058Z,48.77
2018-05-21T09:20:07.999Z,49.06
2018-05-21T09:22:34.014Z,49.07
2018-05-21T09:24:59.862Z,49.27
2018-05-21T09:27:25.787Z,49.61
2018-05-21T09:29:51.741Z,49.79
2018-05-21T09:32:17.766Z,48.54
2018-05-21T09:34:43.700Z,48.04
2018-05-21T09:37:09.637Z,48.43
2018-05-21T09:39:35.579Z,49.78
2018-05-21T09:42:01.528Z,49.57
2018-05-21T09:44:27.450Z,48.71
2018-05-21T09:46:53.410Z,49.39
2018-05-21T09:49:19.332Z,48.14
2018-05-21T09:51:45.261Z,48.87
2018-05-21T09:54:11.192Z,48.69
2018-05-21T09:56:37.149Z,48.40
2018-05-21T09:59:03.069Z,47.25
2018-05-21T10:01:29.016Z,48.04
2018-05-21T10:03:54.952Z,47.17
2018-05-21T10:06:20.891Z,46.33
2018-05-21T10:08:46.825Z,46.74
2018-05-21T10:11:12.757Z,46.64
2018-05-21T10:13:38.681Z,45.17
2018-05-21T10:16:04.609Z,45.80
2018-05-21T10:18:30.545Z,44.80
2018-05-21T10:20:56.499Z,43.03
2018-05-21T10:23:22.476Z,42.75
2018-05-21T10:25:48.411Z,41.50
2018-05-21T10:28:14.340Z,41.63
2018-05-21T10:30:40.317Z,41.30
2018-05-21T10:33:06.271Z,40.45
2018-05-21T10:35:32.221Z,40.96
2018-05-21T10:37:58.168Z,41.30
2018-05-21T10:40:24.147Z,40.40
2018-05-21T10:42:50.069Z,40.62
2018-05-21T10:45:16.008Z,40.72
2018-05-21T10:47:41.957Z,39.58
2018-05-21T10:50:07.865Z,39.46
2018-05-21T10:52:33.782Z,38.72
2018-05-21T10:54:59.735Z,39.37
2018-05-21T10:57:25.666Z,39.46
2018-05-21T10:59:51.626Z,39.62
2018-05-21T11:02:17.537Z,39.13
2018-05-21T11:04:43.504Z,38.41
2018-05-21T11:07:09.407Z,38.30
2018-05-21T11:09:35.330Z,36.42
2018-05-21T11:12:01.310Z,35.45
2018-05-21T11:14:27.243Z,36.94
2018-05-21T11:16:53.194Z,36.66
2018-05-21T11:19:19.116Z,35.69
2018-05-21T11:21:45.058Z,35.34
2018-05-21T11:24:10.981Z,34.76
2018-05-21T11:26:36.935Z,35.19
2018-05-21T11:29:02.867Z,35.28
2018-05-21T11:31:28.793Z,33.84
2018-05-21T11:33:54.742Z,33.32
2018-05-21T11:36:20.674Z,33.70
2018-05-21T11:38:46.623Z,33.38
2018-05-21T11:41:12.555Z,32.57
2018-05-21T11:43:38.531Z,32.26
2018-05-21T11:46:04.469Z,32.87
2018-05-21T11:48:30.428Z,31.39
2018-05-21T11:50:56.338Z,31.70
2018-05-21T11:53:22.261Z,30.49
2018-05-21T11:55:48.188Z,31.14
2018-05-21T11:58:14.149Z,30.38
2018-05-21T12:00:40.067Z,30.22
2018-05-21T12:03:05.979Z,31.80
2018-05-21T12:05:31.931Z,30.73
2018-05-21T12:07:57.860Z,30.20
2018-05-21T12:10:23.800Z,29.39
2018-05-21T12:12:49.713Z,30.72
2018-05-21T12:15:15.658Z,29.50
2018-05-21T12:17:41.679Z,28.49
2018-05-21T12:20:07.654Z,28.84
2018-05-21T12:22:33.613Z,28.55
2018-05-21T12:24:59.545Z,28.17
2018-05-21T12:27:25.501Z,28.08
2018-05-21T12:29:51.441Z,27.73
2018-05-21T12:32:17.420Z,27.27
2018-05-21T12:34:43.342Z,26.59
2018-05-21T12:37:09.273Z,27.97
2018-05-21T12:39:35.229Z,28.23
2018-05-21T12:42:01.196Z,26.86
2018-05-21T12:44:27.143Z,26.73
2018-05-21T12:46:53.197Z,27.45
2018-05-21T12:49:19.068Z,27.41
2018-05-21T12:51:44.982Z,26.84
2018-05-21T12:54:10.937Z,26.42
2018-05-21T12:56:36.861Z,25.53
2018-05-21T12:59:02.806Z,26.81
2018-05-21T13:01:28.712Z,26.16
2018-05-21T13:03:54.641Z,25.70
2018-05-21T13:06:20.557Z,26.22
2018-05-21T13:08:46.509Z,25.79
2018-05-21T13:11:12.449Z,26.87
2018-05-21T13:13:38.372Z,26.41
2018-05-21T13:16:04.306Z,26.33
2018-05-21T13:18:30.220Z,25.83
2018-05-21T13:20:56.181Z,26.55
2018-05-21T13:23:22.098Z,26.05
2018-05-21T13:25:48.037Z,26.51
2018-05-21T13:28:13.949Z,25.06
2018-05-21T13:30:39.893Z,25.21
2018-05-21T13:33:05.811Z,26.01
2018-05-21T13:35:31.771Z,25.99
2018-05-21T13:37:57.677Z,25.64
2018-05-21T13:40:23.635Z,24.97
2018-05-21T13:42:49.553Z,25.78
2018-05-21T13:45:15.467Z,25.50
2018-05-21T13:47:41.555Z,24.71
2018-05-21T13:50:07.542Z,25.63
2018-05-21T13:52:33.498Z,25.95
2018-05-21T13:54:59.388Z,24.94
2018-05-21T13:57:25.344Z,25.14
2018-05-21T13:59:51.275Z,25.62
2018-05-21T14:02:17.241Z,24.84
2018-05-21T14:04:43.154Z,24.70
2018-05-21T14:07:09.094Z,25.84
2018-05-21T14:09:35.009Z,25.75
2018-05-21T14:12:00.941Z,24.81
2018-05-21T14:14:26.889Z,24.49
2018-05-21T14:16:52.800Z,25.18
2018-05-21T14:19:18.763Z,24.89
2018-05-21T14:21:44.716Z,25.05
2018-05-21T14:24:10.677Z,24.98
2018-05-21T14:26:36.643Z,24.81
2018-05-21T14:29:02.609Z,24.62
2018-05-21T14:31:28.536Z,25.45
2018-05-21T14:33:54.509Z,24.42
2018-05-21T14:36:20.539Z,25.33
2018-05-21T14:38:46.476Z,24.28
2018-05-21T14:41:12.417Z,24.06
2018-05-21T14:43:38.364Z,24.90
2018-05-21T14:46:04.309Z,23.38
2018-05-21T14:48:30.297Z,24.29
2018-05-21T14:50:56.224Z,24.36
2018-05-21T14:53:22.157Z,24.72
2018-05-21T14:55:48.085Z,25.20
2018-05-21T14:58:13.988Z,24.43
2018-05-21T15:00:39.921Z,24.54
2018-05-21T15:03:05.849Z,24.37
2018-05-21T15:05:31.798Z,23.85
2018-05-21T15:07:57.767Z,24.01
2018-05-21T15:10:23.708Z,23.48
2018-05-21T15:12:49.644Z,23.32
2018-05-21T15:15:15.585Z,24.28
2018-05-21T15:17:41.550Z,23.95
2018-05-21T15:20:07.547Z,23.80
2018-05-21T15:22:33.484Z,23.60
2018-05-21T15:24:59.418Z,23.55
2018-05-21T15:27:25.381Z,23.42
2018-05-21T15:29:51.322Z,23.51
2018-05-21T15:32:17.286Z,24.28
2018-05-21T15:34:43.188Z,23.75
2018-05-21T15:37:09.113Z,23.26
2018-05-21T15:39:35.059Z,23.04
2018-05-21T15:42:00.990Z,22.64
2018-05-21T15:44:26.937Z,22.80
2018-05-21T15:46:52.876Z,22.88
2018-05-21T15:49:18.815Z,21.94
2018-05-21T15:51:44.726Z,22.20
2018-05-21T15:54:10.693Z,22.51
2018-05-21T15:56:36.604Z,22.60
2018-05-21T15:59:02.535Z,22.79
2018-05-21T16:01:28.463Z,22.28
2018-05-21T16:03:54.395Z,22.91
2018-05-21T16:06:20.379Z,22.02
2018-05-21T16:08:46.336Z,21.45
2018-05-21T16:11:12.285Z,21.55
2018-05-21T16:13:38.273Z,21.63
2018-05-21T16:16:04.207Z,21.86
2018-05-21T16:18:30.119Z,21.89
2018-05-21T16:20:56.084Z,22.22
2018-05-21T16:23:22.130Z,22.76
2018-05-21T16:25:47.991Z,22.83
2018-05-21T16:28:13.928Z,22.38
2018-05-21T16:30:39.885Z,22.46
2018-05-21T16:33:05.873Z,22.64
2018-05-21T16:35:31.925Z,22.90
2018-05-21T16:37:57.843Z,23.62
2018-05-21T16:40:23.812Z,23.94
2018-05-21T16:42:49.743Z,22.44
2018-05-21T16:45:15.677Z,22.96
2018-05-21T16:47:41.725Z,23.26
2018-05-21T16:50:07.632Z,24.16
2018-05-21T16:52:33.562Z,25.98
2018-05-21T16:54:59.542Z,26.48
2018-05-21T16:57:25.524Z,27.82
2018-05-21T16:59:51.496Z,27.54
2018-05-21T17:02:17.478Z,27.95
2018-05-21T17:04:43.488Z,28.32
2018-05-21T17:07:09.460Z,28.11
2018-05-21T17:09:35.414Z,29.03
2018-05-21T17:12:01.355Z,28.92
2018-05-21T17:14:27.362Z,29.10
2018-05-21T17:16:53.304Z,29.11
2018-05-21T17:19:19.272Z,29.19
2018-05-21T17:21:45.240Z,30.97
2018-05-21T17:24:11.201Z,29.91
2018-05-21T17:26:37.173Z,29.73
2018-05-21T17:29:03.117Z,29.74
2018-05-21T17:31:29.154Z,30.90
2018-05-21T17:33:55.689Z,31.54
2018-05-21T17:36:21.712Z,32.25
2018-05-21T17:38:47.684Z,31.80
2018-05-21T17:41:13.641Z,32.55
2018-05-21T17:43:39.602Z,32.30
2018-05-21T17:46:05.564Z,32.23
2018-05-21T17:48:31.497Z,32.46
2018-05-21T17:50:57.458Z,32.88
2018-05-21T17:53:23.493Z,32.65
2018-05-21T17:55:50.237Z,33.50
2018-05-21T17:58:16.197Z,33.70
2018-05-21T18:00:42.176Z,33.75
2018-05-21T18:03:08.265Z,33.86
2018-05-21T18:05:34.887Z,34.06
2018-05-21T18:08:00.887Z,34.05
2018-05-21T18:10:26.844Z,34.13
2018-05-21T18:12:52.865Z,35.08
2018-05-21T18:15:18.843Z,34.19
2018-05-21T18:17:44.833Z,34.14
2018-05-21T18:20:10.786Z,34.40
2018-05-21T18:22:36.772Z,34.99
2018-05-21T18:25:02.773Z,34.83
2018-05-21T18:27:28.708Z,34.89
2018-05-21T18:29:54.784Z,35.60
2018-05-21T18:32:20.821Z,34.92
2018-05-21T18:34:46.866Z,36.24
2018-05-21T18:37:12.930Z,35.94
2018-05-21T18:39:38.925Z,36.70
2018-05-21T18:42:04.875Z,37.42
2018-05-21T18:44:31.493Z,37.44
2018-05-21T18:46:57.499Z,37.01
2018-05-21T18:49:23.650Z,39.32
2018-05-21T18:51:51.531Z,37.70
2018-05-21T18:54:17.517Z,37.71
2018-05-21T18:56:43.469Z,39.26
2018-05-21T18:59:09.455Z,38.88
2018-05-21T19:01:35.427Z,40.01
2018-05-21T19:04:01.469Z,40.31
2018-05-21T19:06:27.989Z,40.92
2018-05-21T19:08:55.257Z,39.94
2018-05-21T19:11:21.290Z,41.01
2018-05-21T19:13:47.841Z,40.64
2018-05-21T19:16:13.838Z,41.76
2018-05-21T19:18:39.801Z,42.31
2018-05-21T19:21:05.807Z,42.31
2018-05-21T19:23:31.851Z,43.02
2018-05-21T19:25:57.783Z,43.87
2018-05-21T19:28:24.458Z,43.97
2018-05-21T19:30:50.493Z,45.66
2018-05-21T19:33:16.533Z,45.08
2018-05-21T19:35:42.612Z,45.18
2018-05-21T19:38:08.788Z,45.37
2018-05-21T19:40:37.506Z,46.66
2018-05-21T19:43:03.668Z,46.93
2018-05-21T19:45:29.637Z,46.54
2018-05-21T19:47:55.573Z,47.19
2018-05-21T19:50:22.368Z,47.27
2018-05-21T19:52:49.188Z,47.73
2018-05-21T19:55:15.180Z,47.11
2018-05-21T19:57:41.116Z,48.14
2018-05-21T20:00:07.077Z,48.06
2018-05-21T20:02:33.076Z,47.88
2018-05-21T20:04:59.537Z,48.40
2018-05-21T20:07:25.627Z,48.87
2018-05-21T20:09:51.534Z,49.93
2018-05-21T20:12:17.552Z,49.01
2018-05-21T20:14:43.645Z,48.96
2018-05-21T20:17:09.627Z,50.39
2018-05-21T20:19:35.746Z,49.82
2018-05-21T20:22:01.741Z,50.70
2018-05-21T20:24:27.678Z,51.15
2018-05-21T20:26:53.621Z,50.95
2018-05-21T20:29:19.598Z,50.83
2018-05-21T20:31:45.650Z,50.50
2018-05-21T20:34:11.595Z,51.67
2018-05-21T20:36:37.570Z,51.57
2018-05-21T20:39:04.463Z,51.06
2018-05-21T20:41:30.424Z,51.16
2018-05-21T20:43:56.983Z,52.38
2018-05-21T20:46:23.927Z,52.02
2018-05-21T20:48:49.962Z,52.68
2018-05-21T20:51:15.900Z,53.72
2018-05-21T20:53:41.985Z,53.93
2018-05-21T20:56:08.032Z,53.28
2018-05-21T20:58:33.975Z,52.82
2018-05-21T21:01:00.003Z,53.40
2018-05-21T21:03:25.985Z,54.05
2018-05-21T21:05:52.864Z,54.31
2018-05-21T21:08:19.330Z,53.88
2018-05-21T21:10:45.601Z,54.67
2018-05-21T21:13:11.575Z,54.01
2018-05-21T21:15:37.708Z,54.79
2018-05-21T21:18:04.048Z,55.22
2018-05-21T21:20:30.880Z,54.75
2018-05-21T21:22:56.878Z,54.86
2018-05-21T21:25:22.852Z,54.05
2018-05-21T21:27:48.894Z,54.43
2018-05-21T21:30:15.011Z,54.71
2018-05-21T21:32:41.096Z,55.30
2018-05-21T21:35:06.920Z,55.27
2018-05-21T21:37:32.892Z,54.68
2018-05-21T21:39:58.833Z,55.19
2018-05-21T21:42:24.815Z,54.95
2018-05-21T21:44:50.794Z,55.47
2018-05-21T21:47:16.748Z,55.92
2018-05-21T21:49:42.730Z,55.80
2018-05-21T21:52:08.705Z,57.21
2018-05-21T21:54:34.658Z,57.00
2018-05-21T21:57:00.597Z,56.56
2018-05-21T21:59:26.557Z,56.52
2018-05-21T22:01:52.506Z,56.63
2018-05-21T22:04:18.461Z,57.08
2018-05-21T22:06:44.381Z,57.59
2018-05-21T22:09:10.354Z,57.84
2018-05-21T22:11:36.265Z,58.11
2018-05-21T22:14:02.204Z,58.42
2018-05-21T22:16:28.149Z,58.33
2018-05-21T22:18:54.130Z,58.28
2018-05-21T22:21:20.125Z,58.97
2018-05-21T22:23:46.077Z,58.32
2018-05-21T22:26:12.044Z,59.49
2018-05-21T22:28:37.969Z,58.92
2018-05-21T22:31:03.903Z,58.68
2018-05-21T22:33:29.872Z,59.39
2018-05-21T22:35:55.797Z,58.99
2018-05-21T22:38:21.740Z,58.10
2018-05-21T22:40:47.664Z,59.00
2018-05-21T22:43:13.653Z,59.27
2018-05-21T22:45:39.584Z,58.12
2018-05-21T22:48:05.536Z,57.94
2018-05-21T22:50:31.470Z,57.96
2018-05-21T22:52:57.413Z,57.56
2018-05-21T22:55:23.350Z,58.54
2018-05-21T22:57:49.271Z,57.80
2018-05-21T23:00:15.198Z,57.29
2018-05-21T23:02:41.110Z,58.01
2018-05-21T23:05:07.047Z,57.48
2018-05-21T23:07:33.021Z,57.46
2018-05-21T23:09:58.956Z,58.23
2018-05-21T23:12:24.862Z,57.86
2018-05-21T23:14:50.819Z,57.86
2018-05-21T23:17:16.750Z,57.37
2018-05-21T23:19:42.673Z,56.98
2018-05-21T23:22:10.459Z,57.99
2018-05-21T23:24:36.377Z,57.21
2018-05-21T23:27:02.317Z,57.75
2018-05-21T23:29:28.226Z,57.71
2018-05-21T23:31:54.156Z,57.99
2018-05-21T23:34:20.070Z,57.57
2018-05-21T23:39:38.950Z,57.57
2018-05-21T23:42:04.812Z,57.55
2018-05-21T23:44:30.737Z,57.34
2018-05-21T23:46:56.675Z,57.31
2018-05-21T23:49:22.595Z,58.71
2018-05-21T23:51:48.521Z,57.70
2018-05-21T23:54:14.443Z,58.32
2018-05-21T23:56:40.358Z,58.10
2018-05-21T23:59:06.267Z,58.80
